createdAt,value
2024-05-09T00:00:22.145Z,8.08
2024-05-09T00:01:20.436Z,7.98
2024-05-09T00:01:53.532Z,7.94
2024-05-09T00:02:27.082Z,7.91
2024-05-09T00:03:01.089Z,7.90
2024-05-09T00:03:34.480Z,7.88
2024-05-09T00:04:07.930Z,7.86
2024-05-09T00:04:41.294Z,7.79
2024-05-09T00:05:14.737Z,7.78
2024-05-09T00:05:48.397Z,7.77
2024-05-09T00:06:21.676Z,7.76
2024-05-09T00:06:55.065Z,7.76
2024-05-09T00:07:28.311Z,7.75
2024-05-09T00:08:01.781Z,7.76
2024-05-09T00:08:35.462Z,7.76
2024-05-09T00:09:08.890Z,7.76
2024-05-09T00:09:41.920Z,7.72
2024-05-09T00:10:25.048Z,7.74
2024-05-09T00:11:02.920Z,7.72
2024-05-09T00:11:36.211Z,7.70
2024-05-09T00:12:10.092Z,7.68
2024-05-09T00:12:44.566Z,7.70
2024-05-09T00:13:18.344Z,7.69
2024-05-09T00:13:51.481Z,7.70
2024-05-09T00:14:24.731Z,7.70
2024-05-09T00:14:58.448Z,7.70
2024-05-09T00:15:33.156Z,7.71
2024-05-09T00:16:07.275Z,7.67
2024-05-09T00:16:40.561Z,7.70
2024-05-09T00:17:13.860Z,7.70
2024-05-09T00:17:47.203Z,7.71
2024-05-09T00:18:20.507Z,7.71
2024-05-09T00:18:54.260Z,7.71
2024-05-09T00:19:27.844Z,7.70
2024-05-09T00:20:01.271Z,7.69
2024-05-09T00:20:39.039Z,7.69
2024-05-09T00:21:14.311Z,7.68
2024-05-09T00:21:47.588Z,7.68
2024-05-09T00:22:20.706Z,7.67
2024-05-09T00:22:54.079Z,7.63
2024-05-09T00:23:27.292Z,7.65
2024-05-09T00:24:00.589Z,7.60
2024-05-09T00:24:33.875Z,7.62
2024-05-09T00:25:08.918Z,7.60
2024-05-09T00:25:45.356Z,7.57
2024-05-09T00:26:18.754Z,7.57
2024-05-09T00:26:51.948Z,7.56
2024-05-09T00:27:25.407Z,7.55
2024-05-09T00:27:58.999Z,7.53
2024-05-09T00:28:34.375Z,7.53
2024-05-09T00:29:07.616Z,7.53
2024-05-09T00:29:40.819Z,7.53
2024-05-09T00:30:21.438Z,7.52
2024-05-09T00:31:02.893Z,7.51
2024-05-09T00:31:35.897Z,7.50
2024-05-09T00:32:09.094Z,7.46
2024-05-09T00:32:42.560Z,7.49
2024-05-09T00:33:16.121Z,7.48
2024-05-09T00:33:49.636Z,7.49
2024-05-09T00:34:24.183Z,7.48
2024-05-09T00:34:57.588Z,7.44
2024-05-09T00:35:33.706Z,7.47
2024-05-09T00:36:08.258Z,7.39
2024-05-09T00:36:41.917Z,7.44
2024-05-09T00:37:16.904Z,7.43
2024-05-09T00:37:50.569Z,7.42
2024-05-09T00:38:23.983Z,7.40
2024-05-09T00:38:58.337Z,7.40
2024-05-09T00:39:31.648Z,7.37
2024-05-09T00:40:07.429Z,7.36
2024-05-09T00:40:43.870Z,7.33
2024-05-09T00:41:19.662Z,7.30
2024-05-09T00:41:53.312Z,7.31
2024-05-09T00:42:26.628Z,7.30
2024-05-09T00:42:59.766Z,7.27
2024-05-09T00:43:33.036Z,7.22
2024-05-09T00:44:06.444Z,7.24
2024-05-09T00:44:40.131Z,7.21
2024-05-09T00:45:13.488Z,7.17
2024-05-09T00:45:47.181Z,7.15
2024-05-09T00:46:21.252Z,7.14
2024-05-09T00:46:56.328Z,7.08
2024-05-09T00:47:29.991Z,7.06
2024-05-09T00:48:06.792Z,7.08
2024-05-09T00:48:41.636Z,7.05
2024-05-09T00:49:15.831Z,7.03
2024-05-09T00:49:49.707Z,7.02
2024-05-09T00:50:29.954Z,6.96
2024-05-09T00:51:09.270Z,6.95
2024-05-09T00:51:43.161Z,6.91
2024-05-09T00:52:16.810Z,6.89
2024-05-09T00:52:50.546Z,6.86
2024-05-09T00:53:24.222Z,6.83
2024-05-09T00:53:57.825Z,6.81
2024-05-09T00:54:31.424Z,6.79
2024-05-09T00:55:05.079Z,6.76
2024-05-09T00:55:39.470Z,6.75
2024-05-09T00:56:13.430Z,6.71
2024-05-09T00:56:49.165Z,6.73
2024-05-09T00:57:23.841Z,6.69
2024-05-09T00:57:57.010Z,6.63
2024-05-09T00:58:30.835Z,6.64
2024-05-09T00:59:04.782Z,6.61
2024-05-09T00:59:38.912Z,6.58
2024-05-09T01:00:22.530Z,6.57
2024-05-09T01:01:06.655Z,6.53
2024-05-09T01:01:41.327Z,6.53
2024-05-09T01:02:16.390Z,6.52
2024-05-09T01:02:49.826Z,6.52
2024-05-09T01:03:23.660Z,6.52
2024-05-09T01:03:57.706Z,6.50
2024-05-09T01:04:31.755Z,6.55
2024-05-09T01:05:05.522Z,6.55
2024-05-09T01:05:39.911Z,6.53
2024-05-09T01:06:13.658Z,6.57
2024-05-09T01:06:48.050Z,6.56
2024-05-09T01:07:21.282Z,6.57
2024-05-09T01:07:54.561Z,6.58
2024-05-09T01:08:28.090Z,6.58
2024-05-09T01:09:01.584Z,6.56
2024-05-09T01:09:35.135Z,6.57
2024-05-09T01:10:14.122Z,6.57
2024-05-09T01:10:58.506Z,6.56
2024-05-09T01:11:41.516Z,6.51
2024-05-09T01:12:15.310Z,6.55
2024-05-09T01:12:48.751Z,6.56
2024-05-09T01:13:22.094Z,6.56
2024-05-09T01:13:55.415Z,6.56
2024-05-09T01:14:28.618Z,6.56
2024-05-09T01:15:01.674Z,6.57
2024-05-09T01:15:35.747Z,6.55
2024-05-09T01:16:09.409Z,6.55
2024-05-09T01:16:43.044Z,6.53
2024-05-09T01:17:16.527Z,6.50
2024-05-09T01:17:50.167Z,6.44
2024-05-09T01:18:24.228Z,6.46
2024-05-09T01:18:59.149Z,6.45
2024-05-09T01:19:33.421Z,6.45
2024-05-09T01:20:10.659Z,6.45
2024-05-09T01:20:47.120Z,6.40
2024-05-09T01:21:20.602Z,6.40
2024-05-09T01:21:54.002Z,6.41
2024-05-09T01:22:29.334Z,6.41
2024-05-09T01:23:09.712Z,6.41
2024-05-09T01:23:43.971Z,6.41
2024-05-09T01:24:17.039Z,6.42
2024-05-09T01:24:51.915Z,6.41
2024-05-09T01:25:25.192Z,6.40
2024-05-09T01:25:58.743Z,6.36
2024-05-09T01:26:32.109Z,6.38
2024-05-09T01:27:05.524Z,6.37
2024-05-09T01:27:38.842Z,6.34
2024-05-09T01:28:12.542Z,6.37
2024-05-09T01:28:45.995Z,6.34
2024-05-09T01:29:19.362Z,6.38
2024-05-09T01:29:52.594Z,6.35
2024-05-09T01:30:32.915Z,6.39
2024-05-09T01:31:08.720Z,6.38
2024-05-09T01:31:42.006Z,6.38
2024-05-09T01:32:15.288Z,6.38
2024-05-09T01:32:48.929Z,6.36
2024-05-09T01:33:22.412Z,6.37
2024-05-09T01:33:55.722Z,6.36
2024-05-09T01:34:29.214Z,6.37
2024-05-09T01:35:02.808Z,6.38
2024-05-09T01:35:36.508Z,6.35
2024-05-09T01:36:10.042Z,6.37
2024-05-09T01:36:44.015Z,6.38
2024-05-09T01:37:17.321Z,6.38
2024-05-09T01:37:51.114Z,6.38
2024-05-09T01:38:24.298Z,6.34
2024-05-09T01:38:57.945Z,6.35
2024-05-09T01:39:31.500Z,6.32
2024-05-09T01:40:09.388Z,6.33
2024-05-09T01:40:49.125Z,6.31
2024-05-09T01:42:19.153Z,6.25
2024-05-09T01:42:57.002Z,6.23
2024-05-09T01:43:32.431Z,6.26
2024-05-09T01:44:08.144Z,6.24
2024-05-09T01:48:36.755Z,6.36
2024-05-09T01:49:09.999Z,6.26
2024-05-09T01:49:43.434Z,6.31
2024-05-09T01:50:16.821Z,6.31
2024-05-09T01:50:55.947Z,6.31
2024-05-09T01:51:28.885Z,6.30
2024-05-09T01:52:02.303Z,6.32
2024-05-09T01:52:38.822Z,6.32
2024-05-09T01:53:15.272Z,6.32
2024-05-09T01:53:48.946Z,6.31
2024-05-09T01:54:22.030Z,6.33
2024-05-09T01:54:55.180Z,6.33
2024-05-09T01:55:28.215Z,6.33
2024-05-09T01:56:01.525Z,6.33
2024-05-09T01:56:34.722Z,6.32
2024-05-09T01:57:07.789Z,6.33
2024-05-09T01:57:40.802Z,6.33
2024-05-09T01:58:13.964Z,6.33
2024-05-09T01:58:47.277Z,6.33
2024-05-09T01:59:20.787Z,6.34
2024-05-09T01:59:54.022Z,6.31
2024-05-09T02:00:36.152Z,6.35
2024-05-09T02:01:12.859Z,6.33
2024-05-09T02:01:56.476Z,6.32
2024-05-09T02:02:30.969Z,6.26
2024-05-09T02:03:04.541Z,6.25
2024-05-09T02:03:37.957Z,6.23
2024-05-09T02:04:11.420Z,6.22
2024-05-09T02:04:47.574Z,6.22
2024-05-09T02:05:21.194Z,6.22
2024-05-09T02:05:54.333Z,6.22
2024-05-09T02:06:30.043Z,6.21
2024-05-09T02:07:03.251Z,6.22
2024-05-09T02:07:36.656Z,6.21
2024-05-09T02:08:14.880Z,6.18
2024-05-09T02:08:48.326Z,6.18
2024-05-09T02:09:21.378Z,6.18
2024-05-09T02:09:54.518Z,6.15
2024-05-09T02:10:32.471Z,6.13
2024-05-09T02:11:08.776Z,6.06
2024-05-09T02:11:47.737Z,6.07
2024-05-09T02:12:20.996Z,6.01
2024-05-09T02:12:53.997Z,5.98
2024-05-09T02:13:28.127Z,5.96
2024-05-09T02:14:01.362Z,5.91
2024-05-09T02:14:34.439Z,5.91
2024-05-09T02:15:07.686Z,5.88
2024-05-09T02:15:40.708Z,5.83
2024-05-09T02:16:14.863Z,5.86
2024-05-09T02:16:48.089Z,5.85
2024-05-09T02:17:21.402Z,5.85
2024-05-09T02:17:54.692Z,5.86
2024-05-09T02:18:28.278Z,5.86
2024-05-09T02:19:01.669Z,5.82
2024-05-09T02:19:34.984Z,5.86
2024-05-09T02:20:10.727Z,5.85
2024-05-09T02:20:46.524Z,5.88
2024-05-09T02:21:19.549Z,5.88
2024-05-09T02:21:52.594Z,5.88
2024-05-09T02:22:25.681Z,5.86
2024-05-09T02:22:58.886Z,5.88
2024-05-09T02:23:32.009Z,5.90
2024-05-09T02:24:05.196Z,5.91
2024-05-09T02:24:38.210Z,5.91
2024-05-09T02:25:11.257Z,5.92
2024-05-09T02:25:44.420Z,5.93
2024-05-09T02:26:17.648Z,5.92
2024-05-09T02:26:50.709Z,5.93
2024-05-09T02:27:23.707Z,5.93
2024-05-09T02:27:56.783Z,5.94
2024-05-09T02:28:30.026Z,5.93
2024-05-09T02:29:03.495Z,5.94
2024-05-09T02:29:36.471Z,5.95
2024-05-09T02:30:18.713Z,5.97
2024-05-09T02:30:59.222Z,5.99
2024-05-09T02:31:32.334Z,6.00
2024-05-09T02:32:06.081Z,5.99
2024-05-09T02:32:39.564Z,6.01
2024-05-09T02:33:14.291Z,6.02
2024-05-09T02:33:48.507Z,6.02
2024-05-09T02:34:23.086Z,6.02
2024-05-09T02:34:56.666Z,6.09
2024-05-09T02:35:30.043Z,6.09
2024-05-09T02:36:03.326Z,6.05
2024-05-09T02:36:36.654Z,6.06
2024-05-09T02:37:09.965Z,6.06
2024-05-09T02:37:43.311Z,6.04
2024-05-09T02:38:16.599Z,6.02
2024-05-09T02:38:49.843Z,5.99
2024-05-09T02:39:22.882Z,5.95
2024-05-09T02:39:55.909Z,5.93
2024-05-09T02:40:36.603Z,5.90
2024-05-09T02:41:12.199Z,5.79
2024-05-09T02:41:45.317Z,5.78
2024-05-09T02:42:18.491Z,5.78
2024-05-09T02:42:51.577Z,5.77
2024-05-09T02:43:25.457Z,5.77
2024-05-09T02:43:58.534Z,5.76
2024-05-09T02:44:31.638Z,5.71
2024-05-09T02:45:05.254Z,5.73
2024-05-09T02:45:39.058Z,5.70
2024-05-09T02:46:12.463Z,5.67
2024-05-09T02:46:45.756Z,5.63
2024-05-09T02:47:19.310Z,5.60
2024-05-09T02:47:52.836Z,5.55
2024-05-09T02:48:26.188Z,5.51
2024-05-09T02:48:59.973Z,5.51
2024-05-09T02:49:33.553Z,5.49
2024-05-09T02:50:08.259Z,5.49
2024-05-09T02:50:42.328Z,5.49
2024-05-09T02:51:15.851Z,5.47
2024-05-09T02:51:49.251Z,5.44
2024-05-09T02:52:22.393Z,5.42
2024-05-09T02:52:55.515Z,5.40
2024-05-09T02:53:29.419Z,5.37
2024-05-09T02:54:02.858Z,5.34
2024-05-09T02:54:36.016Z,5.32
2024-05-09T02:55:09.129Z,5.33
2024-05-09T02:55:43.029Z,5.28
2024-05-09T02:56:16.522Z,5.26
2024-05-09T02:56:49.684Z,5.26
2024-05-09T02:57:22.901Z,5.25
2024-05-09T02:57:56.103Z,5.24
2024-05-09T02:58:29.357Z,5.23
2024-05-09T02:59:02.719Z,5.24
2024-05-09T02:59:36.148Z,5.24
2024-05-09T03:00:15.226Z,5.24
2024-05-09T03:00:52.178Z,5.23
2024-05-09T03:01:25.366Z,5.23
2024-05-09T03:01:58.599Z,5.23
2024-05-09T03:02:31.940Z,5.24
2024-05-09T03:03:06.142Z,5.24
2024-05-09T03:03:43.674Z,5.23
2024-05-09T03:04:16.956Z,5.26
2024-05-09T03:04:50.094Z,5.24
2024-05-09T03:05:23.257Z,5.19
2024-05-09T03:05:56.367Z,5.14
2024-05-09T03:06:29.496Z,5.12
2024-05-09T03:07:02.683Z,5.10
2024-05-09T03:07:35.767Z,5.09
2024-05-09T03:08:09.365Z,5.09
2024-05-09T03:08:48.605Z,5.10
2024-05-09T03:09:23.845Z,5.08
2024-05-09T03:09:56.857Z,5.03
2024-05-09T03:10:35.622Z,5.03
2024-05-09T03:11:20.773Z,5.00
2024-05-09T03:11:54.109Z,4.99
2024-05-09T03:12:28.566Z,4.95
2024-05-09T03:13:09.383Z,4.93
2024-05-09T03:13:42.530Z,4.95
2024-05-09T03:14:18.997Z,4.93
2024-05-09T03:14:52.063Z,4.93
2024-05-09T03:15:25.015Z,4.92
2024-05-09T03:16:00.057Z,4.91
2024-05-09T03:16:38.520Z,4.93
2024-05-09T03:17:11.948Z,4.90
2024-05-09T03:17:45.339Z,4.88
2024-05-09T03:18:18.920Z,4.88
2024-05-09T03:18:52.442Z,4.88
2024-05-09T03:19:25.798Z,4.91
2024-05-09T03:19:59.711Z,4.88
2024-05-09T03:20:35.419Z,4.83
2024-05-09T03:21:09.996Z,4.78
2024-05-09T03:21:43.065Z,4.74
2024-05-09T03:22:16.361Z,4.70
2024-05-09T03:22:49.688Z,4.67
2024-05-09T03:23:23.143Z,4.47
2024-05-09T03:23:56.390Z,4.65
2024-05-09T03:24:29.632Z,4.64
2024-05-09T03:25:02.741Z,4.63
2024-05-09T03:25:36.052Z,4.60
2024-05-09T03:26:16.949Z,4.59
2024-05-09T03:26:50.074Z,4.57
2024-05-09T03:27:24.840Z,4.56
2024-05-09T03:27:57.793Z,4.57
2024-05-09T03:28:30.898Z,4.56
2024-05-09T03:29:04.028Z,4.57
2024-05-09T03:29:37.316Z,4.56
2024-05-09T03:30:15.389Z,4.57
2024-05-09T03:30:52.064Z,4.58
2024-05-09T03:31:25.173Z,4.59
2024-05-09T03:32:00.124Z,4.59
2024-05-09T03:32:33.427Z,4.58
2024-05-09T03:33:15.408Z,4.56
2024-05-09T03:33:49.319Z,4.57
2024-05-09T03:34:22.431Z,4.58
2024-05-09T03:34:55.781Z,4.59
2024-05-09T03:35:29.288Z,4.60
2024-05-09T03:36:09.094Z,4.60
2024-05-09T03:36:44.007Z,4.62
2024-05-09T03:37:17.263Z,4.63
2024-05-09T03:37:50.415Z,4.65
2024-05-09T03:38:23.492Z,4.66
2024-05-09T03:38:56.745Z,4.66
2024-05-09T03:39:30.124Z,4.67
2024-05-09T03:40:05.608Z,4.68
2024-05-09T03:40:48.518Z,4.68
2024-05-09T03:41:22.669Z,4.67
2024-05-09T03:41:55.722Z,4.67
2024-05-09T03:42:29.004Z,4.67
2024-05-09T03:43:02.646Z,4.69
2024-05-09T03:43:36.131Z,4.70
2024-05-09T03:44:09.616Z,4.71
2024-05-09T03:44:42.629Z,4.73
2024-05-09T03:45:15.786Z,4.74
2024-05-09T03:45:50.596Z,4.74
2024-05-09T03:46:23.954Z,4.74
2024-05-09T03:46:57.476Z,4.76
2024-05-09T03:47:32.637Z,4.76
2024-05-09T03:48:06.505Z,4.79
2024-05-09T03:48:39.814Z,4.79
2024-05-09T03:49:14.153Z,4.80
2024-05-09T03:49:47.401Z,4.76
2024-05-09T03:50:29.398Z,4.77
2024-05-09T03:51:07.440Z,4.72
2024-05-09T03:51:40.824Z,4.70
2024-05-09T03:52:14.186Z,4.68
2024-05-09T03:52:48.026Z,4.69
2024-05-09T03:53:22.996Z,4.67
2024-05-09T03:53:56.198Z,4.60
2024-05-09T03:54:29.406Z,4.59
2024-05-09T03:55:03.095Z,4.57
2024-05-09T03:55:36.426Z,4.53
2024-05-09T03:56:11.269Z,4.51
2024-05-09T03:56:44.622Z,4.49
2024-05-09T03:57:18.018Z,4.48
2024-05-09T03:57:51.291Z,4.49
2024-05-09T03:58:27.506Z,4.50
2024-05-09T03:59:01.165Z,4.51
2024-05-09T03:59:34.681Z,4.49
2024-05-09T04:00:17.724Z,4.54
2024-05-09T04:00:59.428Z,4.55
2024-05-09T04:01:32.814Z,4.58
2024-05-09T04:02:06.635Z,4.60
2024-05-09T04:02:43.626Z,4.62
2024-05-09T04:03:17.243Z,4.63
2024-05-09T04:03:50.848Z,4.64
2024-05-09T04:04:24.162Z,4.65
2024-05-09T04:04:57.442Z,4.66
2024-05-09T04:05:31.129Z,4.66
2024-05-09T04:06:04.617Z,4.68
2024-05-09T04:06:37.623Z,4.70
2024-05-09T04:07:11.154Z,4.71
2024-05-09T04:07:44.887Z,4.72
2024-05-09T04:08:18.110Z,4.72
2024-05-09T04:08:51.787Z,4.72
2024-05-09T04:09:24.792Z,4.71
2024-05-09T04:09:57.826Z,4.70
2024-05-09T04:10:33.894Z,4.57
2024-05-09T04:11:08.252Z,4.71
2024-05-09T04:11:41.440Z,4.71
2024-05-09T04:12:14.525Z,4.71
2024-05-09T04:12:47.496Z,4.67
2024-05-09T04:13:20.516Z,4.72
2024-05-09T04:13:53.791Z,4.73
2024-05-09T04:14:27.133Z,4.71
2024-05-09T04:15:00.401Z,4.72
2024-05-09T04:15:33.636Z,4.73
2024-05-09T04:16:09.819Z,4.73
2024-05-09T04:16:42.888Z,4.73
2024-05-09T04:17:16.148Z,4.73
2024-05-09T04:17:51.601Z,4.75
2024-05-09T04:18:25.033Z,4.76
2024-05-09T04:18:58.354Z,4.77
2024-05-09T04:19:31.857Z,4.79
2024-05-09T04:20:08.327Z,4.79
2024-05-09T04:20:41.920Z,4.80
2024-05-09T04:21:15.137Z,4.81
2024-05-09T04:21:48.281Z,4.80
2024-05-09T04:22:22.725Z,4.83
2024-05-09T04:22:55.924Z,4.85
2024-05-09T04:23:29.426Z,4.87
2024-05-09T04:24:02.672Z,4.89
2024-05-09T04:24:35.641Z,4.91
2024-05-09T04:25:08.872Z,4.92
2024-05-09T04:25:47.032Z,4.92
2024-05-09T04:26:20.451Z,4.93
2024-05-09T04:26:53.699Z,4.95
2024-05-09T04:27:26.775Z,4.98
2024-05-09T04:27:59.966Z,5.01
2024-05-09T04:28:33.065Z,5.03
2024-05-09T04:29:06.374Z,5.05
2024-05-09T04:29:40.591Z,5.08
2024-05-09T04:30:21.629Z,5.11
2024-05-09T04:31:03.838Z,4.99
2024-05-09T04:31:37.042Z,5.16
2024-05-09T04:32:10.299Z,5.19
2024-05-09T04:32:44.163Z,5.22
2024-05-09T04:33:20.351Z,5.25
2024-05-09T04:33:54.263Z,5.27
2024-05-09T04:34:27.525Z,5.31
2024-05-09T04:35:00.887Z,5.34
2024-05-09T04:35:34.458Z,5.37
2024-05-09T04:36:07.867Z,5.39
2024-05-09T04:36:43.850Z,5.43
2024-05-09T04:37:18.024Z,5.49
2024-05-09T04:37:51.226Z,5.53
2024-05-09T04:38:24.747Z,5.53
2024-05-09T04:38:58.002Z,5.56
2024-05-09T04:39:31.074Z,5.59
2024-05-09T04:40:07.024Z,5.62
2024-05-09T04:40:42.453Z,5.65
2024-05-09T04:41:15.709Z,5.69
2024-05-09T04:41:48.982Z,5.69
2024-05-09T04:42:22.173Z,5.77
2024-05-09T04:42:55.409Z,5.81
2024-05-09T04:43:28.666Z,5.81
2024-05-09T04:44:01.906Z,5.87
2024-05-09T04:44:35.168Z,5.91
2024-05-09T04:45:08.340Z,5.95
2024-05-09T04:45:41.657Z,5.97
2024-05-09T04:46:14.941Z,6.00
2024-05-09T04:46:48.533Z,6.00
2024-05-09T04:47:21.770Z,6.08
2024-05-09T04:47:55.335Z,6.10
2024-05-09T04:48:29.424Z,6.12
2024-05-09T04:49:03.051Z,6.16
2024-05-09T04:49:36.137Z,6.18
2024-05-09T04:50:11.848Z,6.21
2024-05-09T04:50:47.762Z,6.20
2024-05-09T04:51:20.860Z,6.26
2024-05-09T04:51:53.876Z,6.31
2024-05-09T04:52:27.075Z,6.33
2024-05-09T04:53:00.039Z,6.35
2024-05-09T04:53:33.546Z,6.39
2024-05-09T04:54:08.487Z,6.38
2024-05-09T04:54:44.972Z,6.45
2024-05-09T04:55:17.940Z,6.47
2024-05-09T04:55:51.213Z,6.51
2024-05-09T04:56:24.558Z,6.54
2024-05-09T04:56:57.808Z,6.57
2024-05-09T04:57:30.898Z,6.58
2024-05-09T04:58:05.835Z,6.63
2024-05-09T04:58:40.148Z,6.65
2024-05-09T04:59:13.649Z,6.69
2024-05-09T04:59:47.085Z,6.73
2024-05-09T05:00:28.492Z,6.74
2024-05-09T05:01:08.076Z,6.77
2024-05-09T05:01:41.252Z,6.79
2024-05-09T05:02:15.155Z,6.83
2024-05-09T05:02:48.578Z,6.86
2024-05-09T05:03:22.230Z,6.89
2024-05-09T05:03:56.239Z,6.92
2024-05-09T05:04:31.141Z,6.95
2024-05-09T05:05:05.128Z,6.98
2024-05-09T05:05:40.780Z,7.00
2024-05-09T05:06:14.530Z,7.02
2024-05-09T05:06:47.647Z,7.04
2024-05-09T05:07:21.037Z,7.05
2024-05-09T05:07:54.734Z,7.08
2024-05-09T05:08:28.593Z,7.10
2024-05-09T05:09:02.045Z,7.12
2024-05-09T05:09:35.125Z,7.12
2024-05-09T05:10:14.874Z,7.11
2024-05-09T05:10:54.359Z,7.09
2024-05-09T05:11:27.711Z,7.07
2024-05-09T05:12:02.814Z,7.08
2024-05-09T05:12:54.476Z,7.08
2024-05-09T05:13:33.753Z,7.03
2024-05-09T05:14:07.051Z,7.05
2024-05-09T05:14:40.652Z,7.06
2024-05-09T05:15:14.251Z,7.07
2024-05-09T05:15:48.346Z,7.08
2024-05-09T05:16:21.439Z,7.06
2024-05-09T05:16:55.208Z,7.05
2024-05-09T05:17:28.709Z,7.05
2024-05-09T05:18:02.174Z,7.06
2024-05-09T05:18:35.452Z,7.05
2024-05-09T05:19:12.680Z,7.05
2024-05-09T05:19:47.529Z,7.06
2024-05-09T05:20:27.484Z,7.06
2024-05-09T05:21:06.410Z,7.09
2024-05-09T05:21:39.818Z,7.10
2024-05-09T05:22:12.996Z,7.11
2024-05-09T05:22:46.578Z,7.13
2024-05-09T05:23:21.506Z,7.14
2024-05-09T05:23:55.101Z,7.19
2024-05-09T05:24:28.400Z,7.23
2024-05-09T05:25:01.543Z,7.27
2024-05-09T05:25:34.665Z,7.33
2024-05-09T05:26:07.778Z,7.38
2024-05-09T05:26:41.112Z,7.44
2024-05-09T05:27:14.286Z,7.49
2024-05-09T05:27:47.392Z,7.55
2024-05-09T05:28:21.719Z,7.62
2024-05-09T05:28:55.395Z,7.64
2024-05-09T05:29:28.702Z,7.73
2024-05-09T05:30:02.064Z,7.78
2024-05-09T05:30:37.839Z,7.84
2024-05-09T05:31:11.033Z,7.88
2024-05-09T05:31:44.338Z,7.94
2024-05-09T05:32:17.714Z,7.99
2024-05-09T05:32:51.183Z,8.05
2024-05-09T05:33:24.734Z,8.12
2024-05-09T05:33:57.858Z,8.18
2024-05-09T05:34:31.536Z,8.23
2024-05-09T05:35:05.108Z,8.29
2024-05-09T05:35:39.028Z,8.35
2024-05-09T05:36:12.248Z,8.41
2024-05-09T05:36:45.503Z,8.47
2024-05-09T05:37:18.756Z,8.49
2024-05-09T05:37:51.981Z,8.57
2024-05-09T05:38:27.980Z,8.63
2024-05-09T05:39:02.019Z,8.70
2024-05-09T05:39:35.673Z,8.75
2024-05-09T05:40:14.588Z,8.79
2024-05-09T05:40:51.077Z,8.82
2024-05-09T05:41:24.452Z,8.90
2024-05-09T05:41:57.528Z,8.95
2024-05-09T05:42:30.632Z,8.98
2024-05-09T05:43:11.004Z,9.03
2024-05-09T05:43:44.648Z,9.09
2024-05-09T05:44:18.336Z,9.14
2024-05-09T05:44:51.956Z,9.17
2024-05-09T05:45:25.276Z,9.24
2024-05-09T05:45:59.884Z,9.28
2024-05-09T05:46:33.268Z,9.33
2024-05-09T05:47:06.698Z,9.40
2024-05-09T05:47:40.398Z,9.45
2024-05-09T05:48:17.467Z,9.49
2024-05-09T05:48:51.201Z,9.56
2024-05-09T05:49:24.973Z,9.59
2024-05-09T05:49:58.542Z,9.63
2024-05-09T05:50:36.036Z,9.69
2024-05-09T05:51:11.485Z,9.75
2024-05-09T05:51:44.728Z,9.79
2024-05-09T05:52:17.912Z,9.83
2024-05-09T05:52:51.194Z,9.90
2024-05-09T05:53:24.592Z,9.96
2024-05-09T05:53:58.189Z,9.97
2024-05-09T05:54:31.528Z,10.02
2024-05-09T05:55:05.097Z,10.07
2024-05-09T05:55:40.404Z,10.10
2024-05-09T05:56:14.127Z,10.12
2024-05-09T05:56:47.539Z,10.14
2024-05-09T05:57:20.928Z,10.18
2024-05-09T05:57:54.118Z,10.22
2024-05-09T05:58:27.387Z,10.28
2024-05-09T05:59:00.621Z,10.32
2024-05-09T05:59:33.901Z,10.35
2024-05-09T06:00:09.820Z,10.39
2024-05-09T06:00:46.922Z,10.42
2024-05-09T06:01:20.105Z,10.46
2024-05-09T06:01:53.580Z,10.51
2024-05-09T06:02:28.925Z,10.56
2024-05-09T06:03:02.614Z,10.59
2024-05-09T06:03:35.885Z,10.62
2024-05-09T06:04:09.411Z,10.64
2024-05-09T06:04:43.368Z,10.69
2024-05-09T06:05:17.951Z,10.68
2024-05-09T06:05:53.758Z,10.75
2024-05-09T06:06:27.076Z,10.78
2024-05-09T06:07:00.415Z,10.76
2024-05-09T06:07:33.780Z,10.83
2024-05-09T06:08:07.550Z,10.88
2024-05-09T06:08:41.119Z,10.91
2024-05-09T06:09:14.664Z,10.94
2024-05-09T06:09:49.945Z,10.96
2024-05-09T06:10:29.689Z,11.04
2024-05-09T06:11:08.549Z,11.10
2024-05-09T06:11:42.783Z,11.13
2024-05-09T06:12:16.124Z,11.18
2024-05-09T06:12:49.396Z,11.23
2024-05-09T06:13:22.946Z,11.30
2024-05-09T06:13:56.117Z,11.35
2024-05-09T06:14:29.485Z,11.40
2024-05-09T06:15:03.091Z,11.45
2024-05-09T06:15:36.544Z,11.47
2024-05-09T06:16:10.158Z,11.52
2024-05-09T06:16:43.696Z,11.57
2024-05-09T06:17:17.042Z,11.63
2024-05-09T06:17:50.383Z,11.63
2024-05-09T06:18:24.092Z,11.69
2024-05-09T06:18:57.677Z,11.72
2024-05-09T06:19:31.095Z,11.77
2024-05-09T06:20:09.087Z,11.80
2024-05-09T06:20:46.722Z,11.87
2024-05-09T06:21:20.150Z,11.90
2024-05-09T06:21:53.282Z,11.94
2024-05-09T06:22:26.641Z,11.98
2024-05-09T06:22:59.944Z,12.01
2024-05-09T06:23:33.445Z,12.07
2024-05-09T06:24:07.205Z,12.11
2024-05-09T06:24:40.676Z,12.15
2024-05-09T06:25:13.927Z,12.20
2024-05-09T06:25:47.079Z,12.25
2024-05-09T06:26:20.489Z,12.33
2024-05-09T06:26:53.826Z,12.37
2024-05-09T06:27:27.104Z,12.42
2024-05-09T06:28:01.687Z,12.48
2024-05-09T06:28:35.674Z,12.52
2024-05-09T06:29:08.811Z,12.56
2024-05-09T06:29:41.986Z,12.60
2024-05-09T06:30:25.644Z,12.62
2024-05-09T06:31:04.227Z,12.62
2024-05-09T06:31:43.558Z,12.61
2024-05-09T06:32:16.690Z,12.64
2024-05-09T06:32:50.240Z,12.71
2024-05-09T06:33:23.513Z,12.75
2024-05-09T06:33:56.922Z,12.78
2024-05-09T06:34:30.358Z,12.83
2024-05-09T06:35:03.980Z,12.88
2024-05-09T06:35:37.487Z,12.92
2024-05-09T06:36:10.944Z,12.96
2024-05-09T06:36:44.132Z,13.00
2024-05-09T06:37:17.400Z,13.03
2024-05-09T06:37:50.853Z,13.06
2024-05-09T06:38:24.313Z,13.08
2024-05-09T06:38:57.526Z,13.10
2024-05-09T06:39:30.861Z,13.14
2024-05-09T06:40:05.535Z,13.15
2024-05-09T06:40:42.598Z,13.18
2024-05-09T06:41:17.343Z,13.26
2024-05-09T06:41:51.059Z,13.30
2024-05-09T06:42:24.480Z,13.33
2024-05-09T06:42:59.554Z,13.34
2024-05-09T06:43:32.824Z,13.35
2024-05-09T06:44:06.057Z,13.40
2024-05-09T06:44:39.463Z,13.38
2024-05-09T06:45:15.646Z,13.41
2024-05-09T06:45:50.449Z,13.43
2024-05-09T06:46:23.940Z,13.44
2024-05-09T06:46:59.382Z,13.49
2024-05-09T06:47:34.263Z,13.51
2024-05-09T06:48:10.046Z,13.56
2024-05-09T06:48:43.806Z,13.60
2024-05-09T06:49:17.190Z,13.62
2024-05-09T06:49:50.587Z,13.68
2024-05-09T06:50:28.288Z,13.68
2024-05-09T06:51:05.036Z,13.69
2024-05-09T06:51:38.596Z,13.76
2024-05-09T06:52:11.779Z,13.77
2024-05-09T06:52:49.361Z,13.79
2024-05-09T06:53:23.775Z,13.83
2024-05-09T06:53:57.188Z,13.86
2024-05-09T06:54:31.150Z,13.90
2024-05-09T06:55:04.520Z,13.99
2024-05-09T06:55:38.065Z,14.02
2024-05-09T06:56:11.553Z,14.07
2024-05-09T06:56:47.501Z,14.16
2024-05-09T06:57:22.200Z,14.09
2024-05-09T06:57:55.549Z,14.08
2024-05-09T06:58:28.623Z,14.05
2024-05-09T06:59:04.938Z,14.09
2024-05-09T06:59:38.495Z,14.10
2024-05-09T07:00:15.668Z,14.14
2024-05-09T07:00:52.613Z,14.14
2024-05-09T07:01:25.844Z,14.20
2024-05-09T07:01:59.177Z,14.25
2024-05-09T07:02:32.490Z,14.30
2024-05-09T07:03:10.122Z,14.40
2024-05-09T07:03:46.394Z,14.43
2024-05-09T07:04:20.179Z,14.56
2024-05-09T07:04:53.548Z,14.59
2024-05-09T07:05:26.927Z,14.55
2024-05-09T07:06:00.465Z,14.50
2024-05-09T07:06:34.168Z,14.53
2024-05-09T07:07:09.343Z,14.57
2024-05-09T07:07:42.484Z,14.62
2024-05-09T07:08:16.075Z,14.67
2024-05-09T07:08:51.875Z,14.70
2024-05-09T07:09:25.443Z,14.72
2024-05-09T07:09:58.688Z,14.82
2024-05-09T07:10:35.159Z,14.79
2024-05-09T07:11:09.370Z,14.69
2024-05-09T07:11:43.115Z,14.57
2024-05-09T07:12:16.759Z,14.41
2024-05-09T07:12:50.118Z,14.28
2024-05-09T07:13:23.365Z,14.17
2024-05-09T07:13:56.714Z,14.04
2024-05-09T07:14:30.213Z,13.92
2024-05-09T07:15:03.911Z,13.89
2024-05-09T07:15:37.061Z,13.89
2024-05-09T07:16:10.057Z,13.95
2024-05-09T07:16:43.730Z,13.99
2024-05-09T07:17:18.017Z,14.06
2024-05-09T07:17:54.059Z,14.13
2024-05-09T07:18:27.940Z,14.14
2024-05-09T07:19:01.704Z,14.20
2024-05-09T07:19:35.124Z,14.28
2024-05-09T07:20:16.151Z,14.26
2024-05-09T07:20:53.767Z,14.27
2024-05-09T07:21:26.926Z,14.27
2024-05-09T07:22:00.359Z,14.29
2024-05-09T07:22:33.466Z,14.33
2024-05-09T07:23:10.057Z,14.42
2024-05-09T07:23:46.919Z,14.46
2024-05-09T07:24:20.473Z,14.41
2024-05-09T07:24:53.898Z,14.46
2024-05-09T07:25:29.989Z,14.41
2024-05-09T07:26:03.425Z,14.40
2024-05-09T07:26:37.016Z,14.31
2024-05-09T07:27:11.516Z,14.24
2024-05-09T07:27:44.783Z,14.21
2024-05-09T07:28:19.923Z,14.19
2024-05-09T07:28:53.419Z,14.18
2024-05-09T07:29:26.953Z,14.18
2024-05-09T07:30:00.574Z,14.15
2024-05-09T07:30:35.011Z,14.15
2024-05-09T07:31:09.084Z,14.14
2024-05-09T07:31:42.788Z,14.15
2024-05-09T07:32:16.488Z,14.17
2024-05-09T07:32:50.525Z,14.17
2024-05-09T07:33:24.868Z,14.17
2024-05-09T07:33:58.886Z,14.17
2024-05-09T07:34:32.009Z,14.21
2024-05-09T07:35:05.322Z,14.22
2024-05-09T07:35:38.956Z,14.21
2024-05-09T07:36:12.426Z,14.23
2024-05-09T07:36:46.742Z,14.24
2024-05-09T07:37:20.116Z,14.27
2024-05-09T07:37:53.137Z,14.28
2024-05-09T07:38:26.437Z,14.30
2024-05-09T07:39:00.408Z,14.32